Time;durP1;ratioP1;P1;durP2;ratioP2;P2;SDS_P1;SDS_P2;PMS_P1;PMS_P2;Temp;Humidity;BMP_temperature;BMP_pressure;BME280_temperature;BME280_humidity;BME280_pressure;Samples;Min_cycle;Max_cycle;Signal;HPM_P1;HPM_P2
2023/08/28 00:00:46;;;;;;;2.38;1.17;;;;;;;15.46;100.00;100045.00;4997982;28;20063;-82
2023/08/28 00:03:24;;;;;;;;;;;;;;;;;;;;;
2023/08/28 00:05:59;;;;;;;1.10;1.00;;;;;;;15.14;100.00;99993.13;4994750;28;20050;-81
2023/08/28 00:08:36;;;;;;;3.30;1.10;;;;;;;15.23;100.00;100012.00;4982293;28;20072;-82
2023/08/28 00:11:04;;;;;;;2.70;1.20;;;;;;;15.39;100.00;100041.09;4985536;28;20057;-81
2023/08/28 00:13:33;;;;;;;3.53;1.48;;;;;;;15.34;100.00;100036.06;4982821;28;20157;-80
2023/08/28 00:16:02;;;;;;;3.67;1.27;;;;;;;15.28;100.00;100032.97;4981645;28;20069;-83
2023/08/28 00:18:30;;;;;;;3.50;1.50;;;;;;;15.10;100.00;100003.16;4984588;28;20038;-82
2023/08/28 00:20:59;;;;;;;3.70;1.52;;;;;;;15.17;100.00;100028.41;4998001;28;20600;-81
2023/08/28 00:23:32;;;;;;;1.77;1.33;;;;;;;15.12;100.00;100024.38;4986950;28;20046;-80
2023/08/28 00:26:00;;;;;;;3.42;1.50;;;;;;;15.03;100.00;100020.56;5006893;28;20076;-81
2023/08/28 00:28:33;;;;;;;1.98;1.30;;;;;;;14.83;100.00;99991.78;5032443;28;20071;-81
2023/08/28 00:31:05;;;;;;;2.47;1.30;;;;;;;14.97;100.00;100013.84;5016653;28;20038;-81
2023/08/28 00:33:33;;;;;;;2.78;1.73;;;;;;;14.91;100.00;100006.28;5030640;28;20050;-81
2023/08/28 00:36:06;;;;;;;4.15;1.77;;;;;;;14.37;100.00;99918.56;5005244;28;20046;-83
2023/08/28 00:38:41;;;;;;;3.03;1.63;;;;;;;14.79;100.00;99999.16;4986825;28;20038;-81
2023/08/28 00:41:11;;;;;;;2.38;1.40;;;;;;;14.76;100.00;100003.84;5005299;28;20088;-81
2023/08/28 00:43:39;;;;;;;3.28;1.60;;;;;;;14.42;100.00;99954.75;5023412;28;20061;-82
2023/08/28 00:46:08;;;;;;;3.08;1.58;;;;;;;14.65;100.00;100013.44;5004441;28;20073;-81
2023/08/28 00:48:38;;;;;;;2.25;1.65;;;;;;;14.39;100.00;99959.28;5011553;28;20742;-82
2023/08/28 00:51:09;;;;;;;3.28;1.15;;;;;;;14.27;100.00;99946.81;5012519;28;20050;-82
2023/08/28 00:53:44;;;;;;;4.35;1.58;;;;;;;14.09;100.00;99904.63;5013524;28;20048;-81
2023/08/28 00:56:16;;;;;;;2.30;1.30;;;;;;;14.34;100.00;99948.09;5025593;28;20034;-81
2023/08/28 00:58:49;;;;;;;3.63;1.52;;;;;;;14.58;100.00;99990.00;5011093;28;20046;-82
2023/08/28 01:01:18;;;;;;;4.07;1.70;;;;;;;14.26;100.00;99923.81;5011211;28;20077;-81
2023/08/28 01:03:50;;;;;;;3.88;1.58;;;;;;;14.60;100.00;99977.44;5012192;28;20061;-81
2023/08/28 01:06:32;;;;;;;3.80;1.67;;;;;;;14.46;100.00;99943.75;5006536;28;20089;-83
2023/08/28 01:09:20;;;;;;;1.83;1.58;;;;;;;14.50;100.00;99971.03;5004893;28;20125;-82
2023/08/28 01:12:08;;;;;;;3.33;1.60;;;;;;;14.05;100.00;99920.81;5013150;28;20062;-81
2023/08/28 01:14:45;;;;;;;3.95;1.50;;;;;;;14.37;100.00;99979.84;5005220;28;20133;-82
2023/08/28 01:17:27;;;;;;;;;;;;;;;;;;;;;
2023/08/28 01:20:15;;;;;;;1.92;1.20;;;;;;;14.25;100.00;99942.56;4996536;28;20508;-82
2023/08/28 01:23:00;;;;;;;2.00;1.30;;;;;;;14.36;100.00;99975.47;4998143;28;20430;-81
2023/08/28 01:25:32;;;;;;;2.22;1.30;;;;;;;13.98;100.00;99911.56;5015256;28;20268;-81
2023/08/28 01:28:03;;;;;;;1.88;1.30;;;;;;;14.50;100.00;99987.00;5018408;28;20056;-82
2023/08/28 01:30:38;;;;;;;1.77;1.40;;;;;;;14.26;100.00;99945.13;5021269;28;20042;-81
2023/08/28 01:33:06;;;;;;;2.40;1.35;;;;;;;14.58;100.00;99992.66;5007406;28;20042;-82
2023/08/28 01:35:35;;;;;;;2.50;1.40;;;;;;;14.61;100.00;99995.97;5005285;28;20029;-81
2023/08/28 01:38:15;;;;;;;3.55;1.38;;;;;;;14.24;100.00;99944.38;5018449;28;20061;-81
2023/08/28 01:40:53;;;;;;;1.90;1.33;;;;;;;14.29;100.00;99965.38;5031613;28;20022;-80
2023/08/28 01:43:24;;;;;;;2.90;1.25;;;;;;;14.46;100.00;99988.19;5031776;28;20045;-80
2023/08/28 01:45:59;;;;;;;3.00;1.65;;;;;;;14.22;100.00;99948.09;5024806;28;20058;-80
2023/08/28 01:48:34;;;;;;;2.00;1.13;;;;;;;14.25;100.00;99971.84;5012843;28;20118;-82
2023/08/28 01:51:04;;;;;;;1.40;1.27;;;;;;;14.49;100.00;100025.25;5011136;28;20045;-81
2023/08/28 01:53:34;;;;;;;1.63;1.00;;;;;;;14.55;100.00;100047.03;5004565;28;20039;-81
2023/08/28 01:56:19;;;;;;;2.95;1.23;;;;;;;14.49;100.00;100038.59;5001000;28;20076;-80
2023/08/28 01:58:51;;;;;;;2.45;1.60;;;;;;;14.15;100.00;100006.25;5029702;28;20053;-81
2023/08/28 02:01:21;;;;;;;2.20;1.70;;;;;;;14.10;100.00;100020.81;5007978;28;20038;-80
2023/08/28 02:03:57;;;;;;;2.15;1.45;;;;;;;13.98;100.00;100014.53;4997593;28;20057;-80
2023/08/28 02:06:29;;;;;;;4.35;1.40;;;;;;;14.11;100.00;100023.38;4999633;28;20070;-81
2023/08/28 02:08:59;;;;;;;2.00;1.35;;;;;;;13.77;100.00;99955.59;5014138;28;20786;-81
2023/08/28 02:11:30;;;;;;;1.92;1.15;;;;;;;14.23;100.00;100038.53;5006253;28;20050;-82
2023/08/28 02:13:59;;;;;;;7.68;1.70;;;;;;;14.13;100.00;100017.97;5021895;28;20021;-81
2023/08/28 02:16:49;;;;;;;4.20;1.40;;;;;;;14.27;100.00;100040.03;4990147;28;20066;-81
2023/08/28 02:19:21;;;;;;;3.03;1.30;;;;;;;14.15;100.00;100019.56;4999823;28;20060;-81
2023/08/28 02:22:05;;;;;;;;;;;;;;;;;;;;;
2023/08/28 02:24:34;;;;;;;2.50;1.27;;;;;;;14.05;100.00;100037.94;5008747;28;20581;-80
2023/08/28 02:27:04;;;;;;;2.83;1.67;;;;;;;13.91;100.00;100018.53;5002646;28;20050;-81
2023/08/28 02:29:36;;;;;;;1.40;1.30;;;;;;;13.93;100.00;100029.94;5007563;28;20081;-81
2023/08/28 02:32:07;;;;;;;3.25;1.75;;;;;;;13.88;100.00;100013.41;4997141;28;20038;-81
2023/08/28 02:34:45;;;;;;;3.58;1.90;;;;;;;13.76;100.00;99992.94;5008502;28;20244;-81
2023/08/28 02:37:14;;;;;;;;;;;;;;;14.04;100.00;100038.06;5006813;28;20042;-81
2023/08/28 02:39:44;;;;;;;2.67;1.88;;;;;;;13.69;100.00;99989.84;5021754;28;19910;-80
2023/08/28 02:42:17;;;;;;;5.10;1.77;;;;;;;13.58;100.00;99992.34;5024268;28;20041;-81
2023/08/28 02:44:47;;;;;;;2.50;1.77;;;;;;;13.73;100.00;100022.41;5009771;28;20128;-81
2023/08/28 02:47:16;;;;;;;2.25;1.80;;;;;;;13.68;100.00;100030.72;5006148;28;20113;-81
2023/08/28 02:49:49;;;;;;;2.88;1.75;;;;;;;13.51;100.00;100005.22;5017814;28;20067;-81
2023/08/28 02:52:19;;;;;;;2.55;2.00;;;;;;;13.57;100.00;100022.56;5027922;28;20057;-81
2023/08/28 02:54:51;;;;;;;2.75;1.92;;;;;;;13.48;100.00;100013.38;5014051;28;20038;-80
2023/08/28 02:57:23;;;;;;;5.00;1.83;;;;;;;13.60;100.00;100039.19;5005262;28;20046;-83
2023/08/28 02:59:55;;;;;;;4.95;2.30;;;;;;;13.49;100.00;100033.72;5023859;28;20093;-80
2023/08/28 03:02:26;;;;;;;4.57;2.03;;;;;;;13.51;100.00;100030.97;4998367;28;20096;-81
2023/08/28 03:04:54;;;;;;;3.25;1.73;;;;;;;13.49;100.00;100014.25;5010573;28;20122;-81
2023/08/28 03:07:23;;;;;;;5.18;1.90;;;;;;;13.43;100.00;100015.47;5017125;28;20589;-81
2023/08/28 03:09:52;;;;;;;2.53;1.88;;;;;;;13.20;100.00;99976.25;5012633;28;20057;-82
2023/08/28 03:12:30;;;;;;;2.90;2.00;;;;;;;13.44;100.00;100019.00;5020856;28;20039;-82
2023/08/28 03:14:58;;;;;;;3.35;1.88;;;;;;;13.32;100.00;99996.72;5003779;28;20035;-80
2023/08/28 03:17:27;;;;;;;3.55;1.95;;;;;;;13.21;100.00;99980.59;5025731;28;20053;-82
2023/08/28 03:19:59;;;;;;;3.10;2.00;;;;;;;13.37;100.00;99999.09;5019274;28;20069;-81
2023/08/28 03:22:27;;;;;;;2.60;2.08;;;;;;;13.11;100.00;99952.84;5015873;28;20062;-80
2023/08/28 03:24:58;;;;;;;4.05;2.30;;;;;;;12.81;100.00;99905.19;5014510;28;20058;-82
2023/08/28 03:27:32;;;;;;;4.47;2.40;;;;;;;13.15;100.00;99965.03;4997830;28;20038;-84
2023/08/28 03:30:01;;;;;;;4.03;2.00;;;;;;;13.16;100.00;99969.41;5020411;28;20049;-84
2023/08/28 03:32:31;;;;;;;5.03;1.90;;;;;;;12.85;100.00;99918.19;5007713;28;20041;-83
2023/08/28 03:35:03;;;;;;;3.78;2.10;;;;;;;12.88;100.00;99918.00;5020726;28;20041;-83
2023/08/28 03:37:37;;;;;;;2.50;1.98;;;;;;;13.09;100.00;99952.09;5011862;28;20046;-83
2023/08/28 03:40:12;;;;;;;3.17;2.20;;;;;;;13.08;100.00;99961.03;5010834;28;20045;-84
2023/08/28 03:42:43;;;;;;;3.25;2.08;;;;;;;12.86;100.00;99933.16;5015862;28;20056;-83
2023/08/28 03:45:14;;;;;;;3.85;2.10;;;;;;;13.04;100.00;99965.69;5011899;28;20109;-84
2023/08/28 03:47:45;;;;;;;3.95;1.92;;;;;;;13.05;100.00;99962.09;5025762;28;20037;-82
2023/08/28 03:50:19;;;;;;;6.60;1.95;;;;;;;12.77;100.00;99914.28;5016770;28;20045;-83
2023/08/28 03:52:51;;;;;;;2.70;1.92;;;;;;;12.77;100.00;99917.78;5019147;28;20048;-83
2023/08/28 03:55:20;;;;;;;4.70;1.90;;;;;;;12.87;100.00;99916.28;5011576;28;20034;-83
2023/08/28 03:57:54;;;;;;;3.85;1.80;;;;;;;13.06;100.00;99933.72;5007614;28;20361;-82
2023/08/28 04:00:25;;;;;;;3.65;1.88;;;;;;;13.32;100.00;99965.66;4996822;28;20054;-83
2023/08/28 04:02:54;;;;;;;2.67;1.95;;;;;;;13.26;100.00;99933.28;5027503;28;20054;-82
2023/08/28 04:05:26;;;;;;;2.72;2.20;;;;;;;13.48;100.00;99954.88;4999519;28;20061;-83
2023/08/28 04:08:08;;;;;;;3.30;2.03;;;;;;;13.05;100.00;99885.00;5015733;28;20029;-83
2023/08/28 04:10:38;;;;;;;2.13;1.67;;;;;;;13.56;100.00;99959.66;5014763;28;20026;-82
2023/08/28 04:13:08;;;;;;;1.65;1.55;;;;;;;13.55;100.00;99955.28;5014183;28;20106;-82
2023/08/28 04:15:38;;;;;;;2.35;1.73;;;;;;;13.24;100.00;99900.63;5006123;28;20103;-82
2023/08/28 04:18:08;;;;;;;2.85;2.10;;;;;;;13.50;100.00;99944.97;5008858;28;20061;-81
2023/08/28 04:20:40;;;;;;;5.65;2.13;;;;;;;13.51;100.00;99933.38;5009443;28;20057;-83
2023/08/28 04:23:10;;;;;;;2.17;1.90;;;;;;;13.24;100.00;99885.50;5001226;28;20042;-83
2023/08/28 04:25:50;;;;;;;5.05;1.92;;;;;;;13.47;100.00;99928.38;5007525;28;20053;-85
2023/08/28 04:28:20;;;;;;;3.92;1.70;;;;;;;13.61;100.00;99955.75;5032956;28;20076;-83
2023/08/28 04:30:51;;;;;;;4.30;1.63;;;;;;;13.40;100.00;99913.75;5012754;28;20046;-82
2023/08/28 04:33:20;;;;;;;3.50;2.10;;;;;;;13.34;100.00;99897.28;5012547;28;20050;-83
2023/08/28 04:36:00;;;;;;;4.07;1.95;;;;;;;13.41;100.00;99904.81;5013622;28;20048;-82
2023/08/28 04:38:31;;;;;;;;;;;;;;;13.63;100.00;99945.00;5015277;28;20680;-82
2023/08/28 04:41:02;;;;;;;5.13;1.90;;;;;;;13.39;100.00;99915.56;5012725;28;19979;-82
2023/08/28 04:43:33;;;;;;;6.13;2.25;;;;;;;13.35;100.00;99922.06;5023277;28;20034;-83
2023/08/28 04:46:07;;;;;;;5.55;1.90;;;;;;;13.56;100.00;99954.34;5004518;28;20045;-82
2023/08/28 04:48:36;;;;;;;2.58;1.85;;;;;;;13.43;100.00;99938.34;5016289;28;20034;-83
2023/08/28 04:51:10;;;;;;;2.13;1.90;;;;;;;13.62;100.00;99965.44;5017095;28;20117;-83
2023/08/28 04:53:42;;;;;;;4.47;2.33;;;;;;;13.34;100.00;99929.19;5012009;28;20030;-82
2023/08/28 04:56:11;;;;;;;3.85;1.98;;;;;;;13.38;100.00;99936.97;5016579;28;20026;-82
2023/08/28 04:58:42;;;;;;;3.58;1.70;;;;;;;13.63;100.00;99988.44;5036907;28;20038;-83
2023/08/28 05:01:10;;;;;;;6.25;2.05;;;;;;;13.32;100.00;99940.88;5032282;28;20034;-81
2023/08/28 05:03:45;;;;;;;5.13;2.30;;;;;;;13.61;100.00;99992.16;5011182;28;20076;-82
2023/08/28 05:06:19;;;;;;;2.72;2.00;;;;;;;13.29;100.00;99933.94;5026621;28;20037;-83
2023/08/28 05:08:50;;;;;;;3.33;2.10;;;;;;;13.47;100.00;99960.28;5029927;28;20034;-83
2023/08/28 05:11:26;;;;;;;2.33;2.08;;;;;;;13.64;100.00;99983.97;5023211;28;20026;-83
2023/08/28 05:13:59;;;;;;;5.47;2.15;;;;;;;13.46;100.00;99946.13;5024417;28;20060;-82
2023/08/28 05:16:28;;;;;;;5.20;2.42;;;;;;;13.44;100.00;99953.34;4999026;28;20054;-83
2023/08/28 05:18:58;;;;;;;3.85;2.60;;;;;;;13.57;100.00;99975.53;4999091;28;20046;-83
2023/08/28 05:21:31;;;;;;;4.15;2.33;;;;;;;13.34;100.00;99931.84;5003677;28;20050;-83
2023/08/28 05:23:59;;;;;;;2.38;1.95;;;;;;;13.74;100.00;99984.19;4989438;28;20062;-83
2023/08/28 05:26:29;;;;;;;4.80;2.13;;;;;;;13.79;100.00;99990.09;5004557;28;20114;-84
2023/08/28 05:29:02;;;;;;;4.93;2.28;;;;;;;13.52;100.00;99928.94;5009225;28;20129;-85
2023/08/28 05:31:45;;;;;;;5.82;2.10;;;;;;;13.64;100.00;99939.59;5002170;28;20046;-82
2023/08/28 05:34:33;;;;;;;;;;;;;;;;;;;;;
2023/08/28 05:37:07;;;;;;;5.03;2.80;;;;;;;13.67;100.00;99927.91;4998546;28;20041;-83
2023/08/28 05:39:39;;;;;;;5.85;2.53;;;;;;;13.97;100.00;99972.88;5007723;28;20042;-83
2023/08/28 05:42:13;;;;;;;5.72;2.80;;;;;;;13.98;100.00;99977.25;5004249;28;20085;-83
2023/08/28 05:44:47;;;;;;;4.95;2.65;;;;;;;13.98;100.00;99974.59;5008867;28;20046;-82
2023/08/28 05:47:18;;;;;;;5.10;2.40;;;;;;;14.00;100.00;99980.66;4992820;28;20101;-83
2023/08/28 05:49:50;;;;;;;9.38;2.90;;;;;;;13.98;100.00;99979.91;5013817;28;20081;-84
2023/08/28 05:52:20;;;;;;;5.80;2.88;;;;;;;13.69;100.00;99947.28;5004763;28;20049;-83
2023/08/28 05:54:50;;;;;;;5.53;3.35;;;;;;;13.69;100.00;99958.75;5028622;28;20022;-83
2023/08/28 05:57:25;;;;;;;3.13;2.60;;;;;;;13.43;100.00;99929.50;5010840;28;20065;-83
2023/08/28 06:00:31;;;;;;;5.43;2.90;;;;;;;13.24;100.00;99905.94;5015155;28;20076;-83
2023/08/28 06:03:01;;;;;;;4.10;2.95;;;;;;;13.75;100.00;99975.28;5011993;28;20038;-83
2023/08/28 06:05:38;;;;;;;5.72;2.67;;;;;;;13.54;100.00;99941.16;5014903;28;20046;-84
2023/08/28 06:08:07;;;;;;;5.97;3.72;;;;;;;13.82;100.00;99984.56;5012502;28;20034;-84
2023/08/28 06:10:40;;;;;;;5.25;2.92;;;;;;;13.80;100.00;99986.47;5008533;28;20045;-84
2023/08/28 06:13:11;;;;;;;3.00;2.70;;;;;;;13.88;100.00;99995.63;5003344;28;20042;-84
2023/08/28 06:15:48;;;;;;;3.95;2.80;;;;;;;13.69;100.00;99952.59;5012369;28;20315;-82
2023/08/28 06:18:17;;;;;;;7.78;3.75;;;;;;;13.68;100.00;99957.06;5001732;28;20050;-81
2023/08/28 06:20:47;;;;;;;12.02;4.97;;;;;;;14.00;100.00;100005.47;5008050;28;20041;-86
2023/08/28 06:23:17;;;;;;;7.93;3.25;;;;;;;14.03;100.00;99989.28;5005279;28;20037;-84
2023/08/28 06:25:47;;;;;;;6.70;3.50;;;;;;;14.17;100.00;99996.31;5004483;28;20518;-85
2023/08/28 06:28:16;;;;;;;5.05;3.17;;;;;;;14.34;100.00;99981.84;4998904;28;20077;-84
2023/08/28 06:30:52;;;;;;;3.95;3.40;;;;;;;14.64;100.00;99987.75;5005726;28;20466;-83
2023/08/28 06:33:28;;;;;;;7.10;3.38;;;;;;;14.44;100.00;99926.19;5024016;28;20062;-83
2023/08/28 06:36:00;;;;;;;7.65;2.95;;;;;;;15.07;100.00;100004.25;5003258;28;20052;-84
2023/08/28 06:38:28;;;;;;;;;;;;;;;15.18;100.00;100003.47;4996354;28;20041;-84
2023/08/28 06:41:02;;;;;;;4.18;2.80;;;;;;;15.23;100.00;99995.97;5002099;28;19937;-84
2023/08/28 06:43:34;;;;;;;2.65;2.33;;;;;;;14.81;100.00;99937.72;5004145;28;20046;-84
2023/08/28 06:46:05;;;;;;;4.35;3.00;;;;;;;15.31;100.00;100011.41;5018232;28;20046;-84
2023/08/28 06:48:36;;;;;;;4.50;2.70;;;;;;;15.39;100.00;100003.72;5005640;28;20049;-84
2023/08/28 06:51:29;;;;;;;3.55;2.63;;;;;;;15.47;100.00;100005.81;5019336;28;20065;-86
2023/08/28 06:54:18;;;;;;;3.72;3.00;;;;;;;15.51;100.00;100013.50;4998667;28;20038;-84
2023/08/28 06:56:50;;;;;;;4.25;2.65;;;;;;;15.52;100.00;100011.69;5001643;28;20057;-85
2023/08/28 06:59:19;;;;;;;6.05;2.78;;;;;;;15.52;100.00;100009.88;5024972;28;20069;-83
2023/08/28 07:01:55;;;;;;;6.53;2.70;;;;;;;15.22;100.00;99978.28;4999130;28;20066;-83
2023/08/28 07:04:25;;;;;;;3.58;2.75;;;;;;;15.41;100.00;99996.47;4992813;28;20054;-83
2023/08/28 07:06:59;;;;;;;4.72;2.50;;;;;;;15.45;100.00;99997.91;4990744;28;20061;-84
2023/08/28 07:09:29;;;;;;;7.13;2.10;;;;;;;15.33;100.00;99975.66;4991102;28;20054;-84
2023/08/28 07:11:59;;;;;;;4.05;2.20;;;;;;;15.22;100.00;99948.94;4985205;28;20043;-84
2023/08/28 07:14:28;;;;;;;3.25;2.17;;;;;;;15.49;100.00;99994.06;5002189;28;20053;-83
2023/08/28 07:16:59;;;;;;;3.33;1.80;;;;;;;15.43;100.00;99978.50;4989945;28;20042;-83
2023/08/28 07:19:28;;;;;;;3.03;1.65;;;;;;;15.03;100.00;99906.75;5023924;28;20042;-83
2023/08/28 07:22:02;;;;;;;7.38;2.17;;;;;;;15.59;100.00;99997.78;5000440;28;20073;-83
2023/08/28 07:24:30;;;;;;;4.93;2.00;;;;;;;15.69;100.00;99996.16;4998923;28;20042;-83
2023/08/28 07:27:00;;;;;;;3.38;2.30;;;;;;;15.70;100.00;99989.00;5002731;28;20698;-84
2023/08/28 07:29:30;;;;;;;4.85;2.45;;;;;;;15.52;100.00;99967.16;5015470;28;20046;-84
2023/08/28 07:32:00;;;;;;;4.00;2.88;;;;;;;15.44;100.00;99980.19;5009719;28;20046;-83
2023/08/28 07:34:33;;;;;;;6.40;2.85;;;;;;;15.28;100.00;99967.13;5010625;28;20073;-84
2023/08/28 07:37:04;;;;;;;6.22;2.83;;;;;;;15.21;100.00;99959.72;5005022;28;20525;-84
2023/08/28 07:39:39;;;;;;;4.85;2.72;;;;;;;14.98;100.00;99929.38;5004839;28;20046;-84
2023/08/28 07:42:09;;;;;;;3.28;2.53;;;;;;;15.14;100.00;99961.97;5000756;28;20054;-84
2023/08/28 07:44:38;;;;;;;6.28;2.83;;;;;;;15.04;100.00;99951.13;4998944;28;20117;-83
2023/08/28 07:47:10;;;;;;;5.50;2.53;;;;;;;14.65;100.00;99895.31;5002203;28;20049;-84
2023/08/28 07:49:41;;;;;;;3.88;2.58;;;;;;;14.87;100.00;99926.63;5020490;28;20042;-83
2023/08/28 07:52:12;;;;;;;6.47;2.85;;;;;;;15.20;100.00;99966.00;5008566;28;20062;-83
2023/08/28 07:54:41;;;;;;;5.25;2.80;;;;;;;15.34;100.00;99966.69;4988848;28;20038;-84
2023/08/28 07:57:11;;;;;;;7.18;3.10;;;;;;;15.26;100.00;99933.56;4991176;28;20054;-84
2023/08/28 07:59:41;;;;;;;3.30;2.63;;;;;;;15.70;100.00;99975.66;4995298;28;20487;-83
2023/08/28 08:02:14;;;;;;;6.72;3.25;;;;;;;15.81;100.00;99972.16;5010011;28;20041;-84
2023/08/28 08:04:44;;;;;;;5.65;3.08;;;;;;;15.92;100.00;99970.38;5010630;28;20110;-83
2023/08/28 08:07:14;;;;;;;6.97;2.97;;;;;;;15.72;100.00;99910.50;5008458;28;20029;-87
2023/08/28 08:09:44;;;;;;;7.57;2.58;;;;;;;16.05;100.00;99938.28;5006260;28;20073;-85
2023/08/28 08:12:15;;;;;;;5.43;3.00;;;;;;;16.12;100.00;99928.81;5013786;28;20102;-84
2023/08/28 08:14:43;;;;;;;;;;;;;;;16.45;100.00;99958.25;5014747;28;20053;-84
2023/08/28 08:17:24;;;;;;;2.90;2.17;;;;;;;16.59;100.00;99957.16;5022855;28;19930;-83
2023/08/28 08:19:56;;;;;;;6.03;3.20;;;;;;;16.69;100.00;99951.97;5013404;28;20065;-83
2023/08/28 08:22:25;;;;;;;2.83;2.30;;;;;;;16.93;100.00;99968.75;5010202;28;20115;-84
2023/08/28 08:24:54;;;;;;;3.50;2.42;;;;;;;16.99;100.00;99978.97;5007882;28;20685;-83
2023/08/28 08:27:25;;;;;;;2.58;2.20;;;;;;;16.69;100.00;99936.78;5010022;28;20038;-84
2023/08/28 08:29:53;;;;;;;2.88;2.30;;;;;;;16.81;100.00;99948.34;5010349;28;20034;-83
2023/08/28 08:32:26;;;;;;;2.97;2.17;;;;;;;16.85;100.00;99933.72;5024145;28;20080;-83
2023/08/28 08:34:58;;;;;;;4.90;2.10;;;;;;;17.33;100.00;99985.09;5026202;28;20022;-83
2023/08/28 08:37:29;;;;;;;3.83;2.00;;;;;;;17.23;100.00;99943.16;5022380;28;21688;-84
2023/08/28 08:39:58;;;;;;;3.45;2.10;;;;;;;17.37;100.00;99953.59;4984687;28;20045;-84
2023/08/28 08:42:26;;;;;;;2.92;1.88;;;;;;;17.44;100.00;99965.50;5010017;28;20538;-84
2023/08/28 08:44:55;;;;;;;3.88;2.25;;;;;;;17.05;100.00;99884.84;5011960;28;20058;-84
2023/08/28 08:47:26;;;;;;;2.95;2.28;;;;;;;17.42;100.00;99932.66;5004863;28;20045;-84
2023/08/28 08:50:04;;;;;;;2.55;1.80;;;;;;;17.24;100.00;99904.72;4992568;28;20100;-83
2023/08/28 08:52:38;;;;;;;3.35;2.00;;;;;;;17.38;100.00;99933.88;5006030;28;20128;-83
2023/08/28 08:55:16;;;;;;;2.70;2.05;;;;;;;17.45;100.00;99943.97;5003147;28;20038;-85
2023/08/28 08:57:52;;;;;;;3.25;2.15;;;;;;;17.58;100.00;99941.13;4995874;28;20053;-84
2023/08/28 09:00:27;;;;;;;3.38;1.92;;;;;;;17.54;100.00;99915.56;5009669;28;20046;-83
2023/08/28 09:03:02;;;;;;;5.28;2.35;;;;;;;17.66;100.00;99925.28;5025391;28;20036;-84
2023/08/28 09:05:45;;;;;;;2.85;1.90;;;;;;;17.85;100.00;99954.91;5008229;28;20033;-84
2023/08/28 09:08:17;;;;;;;4.47;2.20;;;;;;;17.72;100.00;99916.75;5002771;28;20064;-84
2023/08/28 09:10:46;;;;;;;4.32;2.42;;;;;;;17.99;100.00;99967.13;5005402;28;20045;-83
2023/08/28 09:13:15;;;;;;;2.13;1.90;;;;;;;17.98;100.00;99960.06;5011267;28;20046;-84
2023/08/28 09:15:44;;;;;;;4.68;2.70;;;;;;;18.23;100.00;99991.00;5029234;28;20054;-84
2023/08/28 09:18:14;;;;;;;6.82;3.47;;;;;;;18.18;100.00;99978.00;5013522;28;20049;-84
2023/08/28 09:20:43;;;;;;;4.65;2.90;;;;;;;18.28;100.00;99988.78;5018436;28;20046;-82
2023/08/28 09:23:13;;;;;;;3.75;2.75;;;;;;;18.10;100.00;99961.72;5017195;28;20022;-82
2023/08/28 09:25:44;;;;;;;3.30;2.10;;;;;;;17.95;100.00;99946.09;5014831;28;20056;-83
2023/08/28 09:28:13;;;;;;;3.92;2.75;;;;;;;18.12;100.00;99973.16;5006179;28;20051;-85
2023/08/28 09:30:44;;;;;;;4.93;2.58;;;;;;;18.01;100.00;99958.97;4997365;28;20042;-82
2023/08/28 09:33:15;;;;;;;3.95;2.45;;;;;;;18.41;100.00;100010.03;4997243;28;20042;-82
2023/08/28 09:35:51;;;;;;;5.72;2.72;;;;;;;18.52;100.00;99997.41;5024296;28;20038;-83
2023/08/28 09:38:21;;;;;;;3.10;2.40;;;;;;;18.63;100.00;100014.44;4997591;28;20050;-83
2023/08/28 09:40:55;;;;;;;2.95;2.63;;;;;;;18.64;100.00;100010.75;5018536;28;20042;-83
2023/08/28 09:43:24;;;;;;;4.68;3.03;;;;;;;18.42;100.00;99969.69;4993301;28;20056;-83
2023/08/28 09:46:03;;;;;;;3.53;2.70;;;;;;;18.54;100.00;99987.41;4993056;28;20054;-83
2023/08/28 09:48:35;;;;;;;3.75;2.50;;;;;;;18.79;100.00;100012.97;4997796;28;20180;-83
2023/08/28 09:51:08;;;;;;;4.28;2.58;;;;;;;18.78;100.00;99997.84;5022405;28;20042;-82
2023/08/28 09:53:37;;;;;;;6.65;3.08;;;;;;;18.84;100.00;100010.75;5006805;28;20053;-84
2023/08/28 09:56:06;;;;;;;5.20;2.70;;;;;;;18.78;100.00;100013.09;5013879;28;20046;-83
2023/08/28 09:58:36;;;;;;;4.80;3.10;;;;;;;18.80;100.00;100016.50;5000457;28;20217;-82
2023/08/28 10:01:08;;;;;;;;;;;;;;;18.85;100.00;100003.53;4987223;28;20046;-82
2023/08/28 10:03:43;;;;;;;6.68;2.97;;;;;;;18.80;100.00;99997.72;5013068;28;19916;-80
2023/08/28 10:06:16;;;;;;;4.72;2.97;;;;;;;18.66;100.00;99995.41;4999598;28;20042;-81
2023/08/28 10:08:49;;;;;;;4.13;3.10;;;;;;;18.65;100.00;99989.19;5029705;28;20042;-83
2023/08/28 10:11:19;;;;;;;6.78;2.95;;;;;;;18.85;100.00;100006.22;5020737;28;20055;-83
2023/08/28 10:13:49;;;;;;;3.50;2.67;;;;;;;18.90;100.00;100014.69;5022839;28;20203;-83
2023/08/28 10:16:25;;;;;;;8.25;3.20;;;;;;;18.91;100.00;100013.72;5030290;28;20041;-78
2023/08/28 10:19:04;;;;;;;4.50;2.58;;;;;;;18.99;99.15;100015.75;5026114;28;20053;-84
2023/08/28 10:21:34;;;;;;;2.90;2.60;;;;;;;19.06;96.79;99998.97;5046377;28;20041;-80
2023/08/28 10:24:04;;;;;;;4.05;1.98;;;;;;;19.25;88.44;100006.22;5039288;28;20124;-83
2023/08/28 10:26:36;;;;;;;4.63;2.15;;;;;;;19.33;89.87;99990.31;5039733;28;20080;-83
2023/08/28 10:29:06;;;;;;;2.80;2.13;;;;;;;19.65;87.45;99991.94;5020238;28;20056;-82
2023/08/28 10:31:39;;;;;;;3.20;1.90;;;;;;;20.11;88.26;100024.34;5030345;28;20045;-81
2023/08/28 10:34:11;;;;;;;6.03;2.47;;;;;;;20.42;85.22;100016.16;5033415;28;20047;-85
2023/08/28 10:36:46;;;;;;;3.05;2.15;;;;;;;20.18;78.66;99965.47;5031675;28;20034;-87
2023/08/28 10:39:19;;;;;;;5.72;2.65;;;;;;;20.05;80.07;99965.78;5024202;28;20081;-86
2023/08/28 10:41:49;;;;;;;3.58;2.17;;;;;;;20.05;81.85;99992.66;5035002;28;20030;-82
2023/08/28 10:44:18;;;;;;;2.72;2.00;;;;;;;19.75;85.00;99969.47;5039618;28;20075;-83
2023/08/28 10:46:48;;;;;;;1.98;1.45;;;;;;;19.90;84.68;99980.63;5031282;28;20121;-85
2023/08/28 10:49:19;;;;;;;3.08;1.42;;;;;;;19.84;80.36;99963.22;5025846;28;20575;-85
2023/08/28 10:51:49;;;;;;;2.13;1.42;;;;;;;19.92;78.68;99968.75;5025267;28;20049;-86
2023/08/28 10:54:21;;;;;;;2.03;1.50;;;;;;;20.08;78.81;99980.78;5027184;28;20021;-85
2023/08/28 10:56:55;;;;;;;2.78;1.23;;;;;;;20.15;74.48;99963.06;5027639;28;20045;-84
2023/08/28 10:59:27;;;;;;;1.95;1.10;;;;;;;20.23;76.45;99945.25;5023807;28;20045;-84
2023/08/28 11:01:57;;;;;;;1.52;1.23;;;;;;;20.50;76.59;99955.25;5024803;28;20056;-84
2023/08/28 11:04:36;;;;;;;3.17;1.70;;;;;;;20.60;71.01;99928.34;5027189;28;20056;-85
2023/08/28 11:07:43;;;;;;;2.90;1.70;;;;;;;20.63;70.83;99950.38;5018588;28;20041;-83
2023/08/28 11:10:21;;;;;;;2.88;1.40;;;;;;;20.45;77.03;99951.31;5017467;28;20053;-82
2023/08/28 11:12:53;;;;;;;4.85;1.50;;;;;;;20.25;78.14;99921.75;5027631;28;20045;-83
2023/08/28 11:15:30;;;;;;;4.15;2.00;;;;;;;20.24;80.19;99935.34;5015470;28;20095;-81
2023/08/28 11:21:27;;;;;;;2.67;1.40;;;;;;;20.25;73.37;99939.72;5031642;28;20045;-83
2023/08/28 11:23:57;;;;;;;1.75;1.55;;;;;;;19.82;73.88;99860.44;5019041;28;20449;-83
2023/08/28 11:26:30;;;;;;;4.38;1.70;;;;;;;20.23;74.27;99920.19;5016812;28;20053;-83
2023/08/28 11:29:00;;;;;;;1.40;1.30;;;;;;;19.95;76.30;99887.88;5015901;28;20131;-82
2023/08/28 11:31:33;;;;;;;5.25;1.55;;;;;;;20.13;76.17;99927.44;5021562;28;20105;-82
2023/08/28 11:34:16;;;;;;;3.90;1.58;;;;;;;20.15;79.42;99920.06;5018817;28;20042;-83
2023/08/28 11:36:47;;;;;;;2.80;1.38;;;;;;;20.06;79.14;99918.25;5025365;28;20033;-83
2023/08/28 11:39:24;;;;;;;2.45;1.52;;;;;;;20.09;79.38;99928.72;5040487;28;20121;-83
2023/08/28 11:42:05;;;;;;;2.53;1.50;;;;;;;20.02;78.98;99898.00;5045909;28;20045;-84
2023/08/28 11:44:34;;;;;;;3.95;1.10;;;;;;;19.95;77.24;99889.69;5022766;28;20045;-83
2023/08/28 11:47:05;;;;;;;1.58;1.15;;;;;;;19.91;73.09;99883.75;5018631;28;20525;-83
2023/08/28 11:49:34;;;;;;;2.88;1.17;;;;;;;20.12;73.69;99913.16;5020187;28;20722;-84
2023/08/28 11:52:17;;;;;;;3.33;1.35;;;;;;;20.29;75.03;99893.59;5006612;28;20049;-84
2023/08/28 11:54:46;;;;;;;1.97;0.73;;;;;;;20.34;73.86;99882.38;5038315;28;20049;-83
2023/08/28 11:57:16;;;;;;;2.75;0.90;;;;;;;20.24;67.56;99860.06;5022761;28;20043;-85
2023/08/28 11:59:48;;;;;;;2.13;1.00;;;;;;;20.19;69.74;99871.25;5022483;28;20050;-83